METAR Data
IDs: Format: Raw Decoded Include TAF

Data at: 0345 UTC 18 Jun 2019

PAMB 180256Z AUTO 19007KT 10SM FEW065 18/13 A2965 RMK AO2 SLP045 T01830128 58008 $
PAMB 180156Z AUTO VRB05KT 10SM OVC050 18/12 A2965 RMK AO2 SLP047 T01830122 $
PAMB 180056Z AUTO 21006KT 10SM OVC050 17/12 A2967 RMK AO2 SLP051 T01720117 $
PAMB 172356Z AUTO 27004KT 10SM FEW043 OVC050 16/10 A2967 RMK AO2 RAB13E23 SLP053 P0000 60000 T01560100 10167 20128 58003 $
PAMB 172256Z AUTO 29006KT 10SM FEW035 BKN055 OVC070 16/11 A2968 RMK AO2 RAE56 SLP056 P0000 T01560106 $
PAMB 172156Z AUTO 31007KT 10SM -RA FEW038 BKN049 OVC070 16/10 A2968 RMK AO2 RAB29 SLP057 P0000 T01560100 $
PAMB 172056Z AUTO 31006KT 10SM OVC070 17/09 A2968 RMK AO2 RAB29E43 SLP056 P0000 60000 T01670089 58003 $
PAMB 171956Z AUTO VRB05KT 10SM FEW080 16/08 A2968 RMK AO2 SLP057 T01560078 $
PAMB 171856Z AUTO 21007KT 10SM BKN085 14/09 A2969 RMK AO2 RAB22E38 SLP059 P0000 T01390089 $
PAMB 171756Z AUTO 22007KT 10SM BKN070 BKN085 13/07 A2969 RMK AO2 SLP059 T01280072 10128 20083 58007 $
PAMB 171656Z AUTO 24006KT 10SM BKN085 12/07 A2970 RMK AO2 SLP063 T01170072 $
PAMB 171556Z AUTO VRB03KT 10SM FEW070 OVC085 11/07 A2970 RMK AO2 SLP064 T01060072 $
PAMB 171456Z AUTO 00000KT 10SM OVC070 09/06 A2971 RMK AO2 SLP066 T00940061 58005 $
PAMB 171356Z AUTO 34014KT 10SM SCT095 09/06 A2971 RMK AO2 WSHFT 1328 SLP068 T00940061 $
PAMB 171348Z AUTO 36013KT 10SM FEW065 09/06 A2972 RMK AO2 WSHFT 1328 $
PAMB 171333Z AUTO 06014KT 360V120 10SM SCT070 09/07 A2972 RMK AO2 WSHFT 1313 $
PAMB 171256Z AUTO 01011G17KT 10SM OVC070 09/07 A2972 RMK AO2 SLP069 T00940067 $
PAMB 171156Z AUTO 35008KT 10SM BKN070 09/06 A2972 RMK AO2 SLP071 70007 T00940061 10161 20089 50001 $
PAMB 171056Z AUTO 01013G16KT 10SM FEW075 09/07 A2973 RMK AO2 WSHFT 1019 SLP073 T00940067 $
PAMB 171039Z AUTO 35014KT 10SM CLR 09/07 A2973 RMK AO2 WSHFT 1019 $
PAMB 170956Z AUTO 11012KT 050V130 10SM SCT085 11/08 A2973 RMK AO2 SLP073 T01110078 $
PAMB 170856Z AUTO 06007KT 10SM SCT075 OVC090 11/07 A2972 RMK AO2 SLP070 T01110072 401830094 53008 $
PAMB 170756Z AUTO 03011KT 10SM FEW090 12/07 A2971 RMK AO2 SLP067 T01170067 $
PAMB 170656Z AUTO 02005KT 10SM FEW080 15/09 A2970 RMK AO2 SLP064 T01500094 $
PAMB 170556Z AUTO 00000KT 10SM CLR 16/09 A2970 RMK AO2 SLP062 60004 T01560089 10183 20139 53005 $
PAMB 170456Z AUTO 15009KT 10SM FEW080 SCT090 16/10 A2969 RMK AO2 SLP060 P0001 T01560100 $
PAMB 170356Z AUTO 08007KT 10SM CLR 18/07 A2968 RMK AO2 SLP056 T01780072 $
PAMB 170256Z AUTO 07008KT 10SM SCT060 SCT080 17/09 A2968 RMK AO2 RAE29 SLP057 P0000 60003 T01670094 56007 $
PAMB 170156Z AUTO 19005KT 10SM -RA SCT034 BKN048 OVC065 16/10 A2969 RMK AO2 RAE24B50 SLP059 P0000 T01560100 $
PAMB 170056Z AUTO 01007KT 10SM -RA FEW034 SCT048 BKN060 16/11 A2969 RMK AO2 RAB38 SLP061 P0003 T01560111 $
PAMB 162356Z AUTO 01010KT 10SM FEW032 BKN039 BKN048 16/11 A2970 RMK AO2 RAE21 SLP064 P0000 60003 T01610111 10161 20117 56010 $
PAMB 162256Z AUTO 36006KT 10SM -RA SCT035 BKN043 BKN060 14/12 A2971 RMK AO2 RAB20 SLP068 P0001 T01390117 $
PAMB 162156Z AUTO 05011KT 10SM FEW036 BKN055 OVC070 16/10 A2972 RMK AO2 RAE36 SLP069 P0000 T01560100 $
PAMB 162056Z AUTO 04009KT 10SM -RA FEW021 BKN035 OVC050 13/11 A2973 RMK AO2 RAB01 SLP074 P0002 60002 T01330111 56003 $
PAMB 162043Z AUTO 06007KT 10SM BKN024 BKN029 OVC037 13/11 A2973 RMK AO2 RAB01E40 P0002 $
PAMB 162035Z AUTO 05007KT 10SM -RA SCT023 BKN030 OVC037 13/11 A2973 RMK AO2 RAB01 P0002 $
PAMB 162025Z AUTO 03012KT 10SM -RA BKN028 OVC036 13/11 A2974 RMK AO2 RAB01 P0001 $
PAMB 161956Z AUTO 04009KT 10SM SCT027 BKN033 OVC040 14/09 A2973 RMK AO2 SLP075 T01390089 $
PAMB 161954Z AUTO 04012KT 10SM FEW024 SCT030 OVC037 14/09 A2973 RMK AO2 $
PAMB 161856Z AUTO 05011KT 10SM FEW017 OVC026 13/09 A2974 RMK AO2 SLP077 T01330094 $
PAMB 161811Z AUTO 04012KT 10SM BKN016 BKN065 OVC120 12/09 A2975 RMK AO2 $
PAMB 161756Z AUTO 04012KT 10SM SCT016 BKN065 OVC120 12/09 A2975 RMK AO2 RAE10 SLP080 P0000 60000 T01170089 10122 20094 53001 $
PAMB 161722Z AUTO 03011KT 10SM SCT018 BKN065 OVC120 11/09 A2974 RMK AO2 RAE10 P0000 $
PAMB 161709Z AUTO 04012KT 10SM -RA BKN018 BKN044 BKN110 11/09 A2975 RMK AO2 P0000 $
PAMB 161656Z AUTO 05011G17KT 10SM -RA FEW018 SCT043 BKN110 11/09 A2975 RMK AO2 RAB48 SLP080 P0000 T01110089 $
PAMB 161556Z AUTO 02008KT 10SM FEW038 BKN075 BKN095 10/08 A2974 RMK AO2 SLP078 T01000083 $